createdAt,value
2018-09-13T00:01:25.190Z,2.83
2018-09-13T00:03:53.679Z,1.70
2018-09-13T00:06:22.316Z,1.23
2018-09-13T00:08:50.801Z,2.93
2018-09-13T00:11:19.343Z,2.53
2018-09-13T00:13:48.116Z,3.13
2018-09-13T00:16:16.888Z,1.30
2018-09-13T00:18:45.848Z,2.40
2018-09-13T00:21:14.685Z,2.03
2018-09-13T00:23:43.371Z,1.10
2018-09-13T00:26:12.509Z,1.47
2018-09-13T00:28:41.088Z,1.97
2018-09-13T00:31:09.594Z,2.10
2018-09-13T00:33:38.091Z,1.33
2018-09-13T00:36:06.616Z,1.63
2018-09-13T00:38:35.130Z,2.77
2018-09-13T00:41:04.392Z,3.20
2018-09-13T00:43:32.896Z,3.10
2018-09-13T00:46:01.415Z,1.43
2018-09-13T00:48:30.016Z,2.77
2018-09-13T00:50:58.557Z,1.40
2018-09-13T00:53:27.068Z,1.87
2018-09-13T00:55:55.573Z,1.50
2018-09-13T00:58:24.064Z,2.33
2018-09-13T01:00:52.600Z,1.40
2018-09-13T01:03:21.106Z,1.77
2018-09-13T01:05:49.627Z,1.57
2018-09-13T01:08:18.411Z,2.57
2018-09-13T01:10:46.921Z,2.00
2018-09-13T01:13:16.927Z,2.87
2018-09-13T01:15:45.511Z,1.80
2018-09-13T01:18:14.065Z,1.97
2018-09-13T01:20:42.556Z,1.90
2018-09-13T01:23:11.083Z,2.87
2018-09-13T01:25:39.631Z,1.60
2018-09-13T01:28:08.186Z,1.70
2018-09-13T01:30:36.688Z,1.57
2018-09-13T01:33:05.267Z,2.07
2018-09-13T01:35:33.832Z,1.10
2018-09-13T01:38:02.396Z,2.73
2018-09-13T01:40:31.390Z,1.60
2018-09-13T01:42:59.917Z,1.30
2018-09-13T01:45:28.403Z,1.90
2018-09-13T01:47:56.923Z,2.73
2018-09-13T01:50:25.405Z,2.23
2018-09-13T01:52:53.967Z,1.20
2018-09-13T01:55:22.492Z,1.23
2018-09-13T01:57:51.112Z,2.90
2018-09-13T02:00:19.609Z,1.13
2018-09-13T02:02:48.279Z,2.40
2018-09-13T02:05:16.805Z,2.83
2018-09-13T02:07:45.395Z,1.43
2018-09-13T02:10:13.878Z,1.33
2018-09-13T02:12:42.415Z,1.93
2018-09-13T02:15:10.898Z,2.70
2018-09-13T02:17:39.443Z,1.60
2018-09-13T02:20:07.928Z,3.53
2018-09-13T02:22:36.473Z,4.00
2018-09-13T02:25:05.001Z,2.10
2018-09-13T02:27:33.583Z,4.27
2018-09-13T02:30:02.181Z,1.97
2018-09-13T02:32:30.675Z,3.07
2018-09-13T02:34:59.227Z,1.97
2018-09-13T02:37:27.814Z,2.73
2018-09-13T02:39:56.440Z,1.30
2018-09-13T02:42:24.983Z,1.20
2018-09-13T02:44:53.499Z,1.97
2018-09-13T02:47:22.005Z,1.23
2018-09-13T02:49:50.545Z,4.27
2018-09-13T02:52:19.164Z,1.63
2018-09-13T02:54:47.671Z,0.93
2018-09-13T02:57:16.176Z,1.60
2018-09-13T02:59:44.730Z,1.80
2018-09-13T03:02:13.247Z,1.97
2018-09-13T03:04:41.809Z,2.30
2018-09-13T03:07:10.296Z,1.60
2018-09-13T03:09:38.832Z,1.77
2018-09-13T03:12:07.369Z,1.47
2018-09-13T03:14:35.901Z,2.10
2018-09-13T03:17:04.393Z,1.00
2018-09-13T03:19:32.996Z,1.23
2018-09-13T03:22:01.494Z,1.43
2018-09-13T03:24:30.049Z,3.37
2018-09-13T03:26:58.560Z,1.07
2018-09-13T03:29:27.058Z,1.30
2018-09-13T03:31:55.564Z,1.90
2018-09-13T03:34:24.078Z,2.77
2018-09-13T03:36:52.552Z,1.33
2018-09-13T03:39:21.173Z,2.93
2018-09-13T03:41:49.722Z,2.20
2018-09-13T03:44:18.318Z,1.57
2018-09-13T03:46:46.837Z,1.97
2018-09-13T03:49:15.362Z,1.87
2018-09-13T03:51:43.852Z,4.33
2018-09-13T03:54:12.368Z,1.83
2018-09-13T03:56:40.878Z,2.33
2018-09-13T03:59:09.486Z,2.57
2018-09-13T04:01:38.584Z,3.23
2018-09-13T04:04:07.135Z,1.47
2018-09-13T04:06:35.659Z,0.90
2018-09-13T04:09:07.853Z,2.30
2018-09-13T04:11:36.291Z,1.10
2018-09-13T04:14:05.019Z,1.43
2018-09-13T04:16:33.660Z,2.60
2018-09-13T04:19:02.213Z,1.50
2018-09-13T04:21:30.734Z,2.27
2018-09-13T04:23:59.377Z,1.43
2018-09-13T04:26:28.194Z,2.93
2018-09-13T04:28:56.687Z,1.83
2018-09-13T04:31:25.200Z,1.30
2018-09-13T04:33:53.806Z,1.20
2018-09-13T04:36:22.366Z,2.50
2018-09-13T04:38:50.959Z,1.77
2018-09-13T04:41:20.032Z,2.30
2018-09-13T04:43:48.636Z,1.30
2018-09-13T04:46:17.132Z,3.23
2018-09-13T04:48:45.654Z,2.93
2018-09-13T04:51:14.175Z,2.50
2018-09-13T04:53:42.726Z,2.63
2018-09-13T04:56:11.370Z,1.63
2018-09-13T04:59:17.248Z,1.80
2018-09-13T05:01:46.081Z,2.97
2018-09-13T05:04:14.611Z,2.30
2018-09-13T05:06:43.187Z,1.87
2018-09-13T05:09:13.084Z,1.40
2018-09-13T05:11:41.583Z,1.70
2018-09-13T05:14:10.153Z,1.53
2018-09-13T05:16:38.653Z,1.60
2018-09-13T05:19:07.177Z,1.63
2018-09-13T05:21:35.660Z,4.23
2018-09-13T05:24:04.659Z,1.70
2018-09-13T05:26:33.169Z,7.90
2018-09-13T05:29:01.863Z,3.40
2018-09-13T05:31:30.418Z,1.87
2018-09-13T05:33:58.897Z,2.93
2018-09-13T05:36:27.368Z,2.17
2018-09-13T05:38:55.981Z,2.50
2018-09-13T05:41:24.946Z,1.47
2018-09-13T05:43:53.449Z,2.10
2018-09-13T05:46:22.136Z,2.40
2018-09-13T05:48:50.658Z,2.93
2018-09-13T05:51:19.258Z,1.77
2018-09-13T05:53:47.825Z,3.30
2018-09-13T05:56:16.935Z,2.03
2018-09-13T05:58:45.515Z,2.70
2018-09-13T06:01:14.001Z,1.57
2018-09-13T06:03:42.590Z,2.17
2018-09-13T06:06:11.103Z,3.70
2018-09-13T06:08:39.680Z,2.93
2018-09-13T06:11:08.225Z,1.67
2018-09-13T06:13:36.863Z,2.10
2018-09-13T06:16:05.236Z,3.33
2018-09-13T06:18:33.724Z,2.93
2018-09-13T06:21:02.244Z,1.73
2018-09-13T06:23:33.889Z,2.70
2018-09-13T06:26:05.332Z,3.43
2018-09-13T06:28:33.872Z,1.50
2018-09-13T06:31:02.789Z,1.80
2018-09-13T06:33:31.448Z,1.60
2018-09-13T06:36:00.038Z,1.30
2018-09-13T06:38:28.614Z,1.43
2018-09-13T06:40:57.555Z,2.97
2018-09-13T06:43:26.678Z,1.40
2018-09-13T06:45:55.997Z,2.00
2018-09-13T06:48:24.587Z,2.23
2018-09-13T06:50:53.105Z,3.13
2018-09-13T06:53:23.428Z,1.80
2018-09-13T06:55:51.926Z,1.50
2018-09-13T06:58:20.592Z,3.73
2018-09-13T07:00:49.365Z,3.07
2018-09-13T07:03:18.308Z,1.70
2018-09-13T07:05:46.848Z,5.57
2018-09-13T07:08:15.500Z,1.80
2018-09-13T07:10:44.165Z,3.17
2018-09-13T07:13:12.887Z,3.30
2018-09-13T07:15:41.456Z,1.97
2018-09-13T07:18:10.108Z,1.97
2018-09-13T07:20:38.624Z,3.07
2018-09-13T07:23:07.652Z,5.37
2018-09-13T07:25:36.248Z,1.37
2018-09-13T07:28:04.803Z,5.67
2018-09-13T07:30:33.288Z,3.40
2018-09-13T07:33:01.881Z,3.30
2018-09-13T07:35:30.360Z,3.10
2018-09-13T07:37:58.880Z,6.53
2018-09-13T07:40:27.625Z,4.03
2018-09-13T07:42:56.186Z,3.83
2018-09-13T07:45:24.840Z,5.03
2018-09-13T07:47:53.363Z,5.73
2018-09-13T07:50:22.002Z,8.30
2018-09-13T07:52:50.559Z,6.63
2018-09-13T07:55:19.090Z,7.15
2018-09-13T07:57:47.944Z,6.67
2018-09-13T08:00:16.477Z,3.27
2018-09-13T08:02:45.045Z,7.50
2018-09-13T08:05:13.583Z,5.93
2018-09-13T08:07:42.076Z,11.33
2018-09-13T08:10:10.601Z,5.30
2018-09-13T08:12:39.100Z,6.30
2018-09-13T08:15:07.655Z,7.93
2018-09-13T08:17:36.138Z,5.00
2018-09-13T08:20:04.634Z,6.70
2018-09-13T08:22:33.170Z,2.37
2018-09-13T08:25:02.046Z,5.10
2018-09-13T08:27:30.676Z,9.03
2018-09-13T08:29:59.438Z,4.87
2018-09-13T08:32:27.933Z,9.60
2018-09-13T08:34:57.006Z,8.80
2018-09-13T08:37:25.519Z,3.03
2018-09-13T08:39:54.644Z,6.60
2018-09-13T08:42:23.180Z,1.83
2018-09-13T08:44:52.362Z,5.93
2018-09-13T08:47:20.861Z,2.20
2018-09-13T08:49:49.366Z,2.73
2018-09-13T08:52:17.859Z,5.17
2018-09-13T08:54:46.419Z,3.07
2018-09-13T08:57:14.966Z,3.65
2018-09-13T08:59:44.075Z,3.40
2018-09-13T09:02:12.630Z,3.55
2018-09-13T09:04:41.604Z,5.77
2018-09-13T09:07:10.152Z,1.97
2018-09-13T09:09:38.725Z,5.53
2018-09-13T09:12:07.254Z,3.27
2018-09-13T09:14:36.685Z,4.97
2018-09-13T09:17:05.219Z,5.53
2018-09-13T09:19:33.714Z,1.63
2018-09-13T09:22:02.204Z,5.90
2018-09-13T09:24:30.748Z,3.83
2018-09-13T09:26:59.263Z,4.00
2018-09-13T09:29:27.837Z,4.00
2018-09-13T09:31:57.262Z,6.00
2018-09-13T09:34:26.373Z,4.30
2018-09-13T09:36:55.412Z,4.07
2018-09-13T09:39:24.334Z,2.37
2018-09-13T09:41:53.604Z,2.60
2018-09-13T09:44:23.045Z,4.37
2018-09-13T09:46:51.905Z,1.77
2018-09-13T09:49:20.804Z,5.83
2018-09-13T09:51:49.729Z,2.43
2018-09-13T09:54:18.512Z,2.07
2018-09-13T09:56:47.370Z,3.13
2018-09-13T09:59:16.415Z,3.95
2018-09-13T10:01:50.652Z,4.30
2018-09-13T10:04:19.616Z,1.55
2018-09-13T10:06:48.453Z,3.67
2018-09-13T10:09:17.294Z,3.90
2018-09-13T10:11:46.141Z,1.93
2018-09-13T10:14:14.987Z,1.40
2018-09-13T10:16:49.293Z,3.17
2018-09-13T10:19:23.391Z,2.60
2018-09-13T10:21:57.475Z,2.80
2018-09-13T10:24:31.658Z,3.27
2018-09-13T10:27:05.886Z,1.27
2018-09-13T10:29:40.480Z,7.17
2018-09-13T10:32:14.771Z,3.30
2018-09-13T10:34:48.930Z,4.20
2018-09-13T10:37:22.975Z,3.77
2018-09-13T10:39:57.207Z,2.67
2018-09-13T10:42:31.472Z,3.47
2018-09-13T10:45:05.627Z,3.00
2018-09-13T10:47:42.165Z,2.97
2018-09-13T10:50:15.620Z,2.20
2018-09-13T10:52:48.237Z,3.47
2018-09-13T10:55:17.149Z,0.83
2018-09-13T10:57:45.950Z,2.20
2018-09-13T11:00:15.268Z,3.00
2018-09-13T11:02:44.174Z,2.70
2018-09-13T11:05:13.129Z,2.03
2018-09-13T11:07:41.983Z,1.50
2018-09-13T11:10:10.863Z,2.07
2018-09-13T11:12:45.108Z,2.50
2018-09-13T11:15:19.288Z,2.17
2018-09-13T11:17:48.078Z,1.90
2018-09-13T11:20:16.886Z,2.30
2018-09-13T11:22:50.157Z,1.23
2018-09-13T11:25:18.979Z,2.50
2018-09-13T11:27:47.885Z,1.73
2018-09-13T11:30:16.759Z,3.17
2018-09-13T11:32:45.731Z,1.10
2018-09-13T11:35:14.643Z,2.62
2018-09-13T11:37:43.499Z,3.10
2018-09-13T11:40:12.880Z,3.45
2018-09-13T11:42:42.214Z,1.60
2018-09-13T11:45:11.026Z,1.20
2018-09-13T11:47:40.981Z,5.23
2018-09-13T11:50:09.845Z,2.97
2018-09-13T11:52:38.723Z,2.07
2018-09-13T11:55:08.021Z,2.67
2018-09-13T11:57:36.927Z,1.67
2018-09-13T12:00:05.906Z,2.73
2018-09-13T12:02:34.746Z,3.13
2018-09-13T12:05:04.322Z,3.20
2018-09-13T12:07:33.448Z,2.20
2018-09-13T12:10:02.280Z,2.97
2018-09-13T12:12:31.123Z,3.00
2018-09-13T12:14:59.941Z,4.53
2018-09-13T12:17:28.764Z,1.70
2018-09-13T12:19:58.132Z,3.33
2018-09-13T12:22:27.087Z,3.93
2018-09-13T12:24:55.968Z,2.37
2018-09-13T12:27:24.823Z,2.43
2018-09-13T12:29:53.689Z,1.83
2018-09-13T12:32:22.603Z,2.03
2018-09-13T12:34:51.481Z,1.50
2018-09-13T12:37:20.561Z,1.17
2018-09-13T12:39:49.447Z,1.73
2018-09-13T12:42:18.287Z,1.60
2018-09-13T12:44:47.181Z,2.20
2018-09-13T12:47:16.021Z,0.87
2018-09-13T12:49:44.971Z,2.83
2018-09-13T12:52:13.960Z,1.40
2018-09-13T12:54:42.760Z,1.40
2018-09-13T12:57:11.739Z,1.60
2018-09-13T12:59:40.569Z,1.67
2018-09-13T13:02:09.405Z,1.60
2018-09-13T13:04:38.235Z,1.40
2018-09-13T13:07:07.125Z,1.43
2018-09-13T13:09:35.951Z,1.20
2018-09-13T13:12:07.184Z,1.80
2018-09-13T13:14:36.330Z,3.60
2018-09-13T13:17:05.172Z,2.00
2018-09-13T13:19:34.033Z,0.60
2018-09-13T13:22:02.879Z,1.07
2018-09-13T13:24:31.698Z,1.13
2018-09-13T13:27:00.624Z,1.23
2018-09-13T13:29:29.661Z,1.47
2018-09-13T13:31:58.640Z,2.70
2018-09-13T13:34:27.471Z,1.87
2018-09-13T13:36:56.457Z,1.67
2018-09-13T13:39:25.349Z,1.37
2018-09-13T13:41:54.255Z,1.33
2018-09-13T13:44:23.116Z,1.53
2018-09-13T13:46:51.952Z,4.33
2018-09-13T13:49:21.302Z,2.83
2018-09-13T13:51:50.305Z,1.87
2018-09-13T13:54:20.161Z,1.00
2018-09-13T13:56:49.081Z,1.33
2018-09-13T13:59:17.987Z,1.73
2018-09-13T14:01:47.811Z,1.33
2018-09-13T14:04:16.691Z,2.27
2018-09-13T14:06:48.046Z,3.93
2018-09-13T14:09:17.204Z,2.10
2018-09-13T14:11:46.049Z,1.43
2018-09-13T14:14:14.939Z,1.30
2018-09-13T14:16:43.860Z,1.43
2018-09-13T14:19:12.744Z,1.97
2018-09-13T14:21:41.691Z,2.47
2018-09-13T14:24:10.575Z,1.47
2018-09-13T14:26:40.917Z,1.47
2018-09-13T14:29:10.604Z,1.50
2018-09-13T14:31:41.095Z,1.70
2018-09-13T14:34:09.923Z,1.70
2018-09-13T14:36:39.573Z,4.30
2018-09-13T14:39:09.951Z,2.03
2018-09-13T14:41:38.817Z,2.05
2018-09-13T14:44:07.996Z,1.77
2018-09-13T14:46:37.827Z,2.30
2018-09-13T14:49:06.935Z,2.00
2018-09-13T14:51:36.093Z,1.47
2018-09-13T14:54:05.600Z,1.00
2018-09-13T14:56:36.343Z,1.30
2018-09-13T14:59:05.913Z,3.77
2018-09-13T15:01:36.769Z,2.10
2018-09-13T15:04:05.656Z,1.07
2018-09-13T15:06:34.532Z,0.60
2018-09-13T15:09:03.621Z,1.87
2018-09-13T15:11:32.451Z,1.50
2018-09-13T15:14:01.333Z,2.30
2018-09-13T15:16:29.949Z,1.27
2018-09-13T15:18:58.519Z,2.60
2018-09-13T15:21:27.811Z,3.40
2018-09-13T15:23:57.050Z,1.17
2018-09-13T15:26:25.816Z,1.90
2018-09-13T15:28:54.700Z,1.20
2018-09-13T15:31:24.506Z,2.53
2018-09-13T15:33:53.385Z,2.23
2018-09-13T15:36:22.236Z,1.57
2018-09-13T15:38:52.194Z,1.23
2018-09-13T15:41:21.100Z,1.47
2018-09-13T15:43:50.733Z,1.43
2018-09-13T15:46:19.619Z,0.90
2018-09-13T15:48:48.838Z,5.67
2018-09-13T15:51:18.463Z,6.58
2018-09-13T15:53:47.431Z,86.07
2018-09-13T15:56:16.812Z,55.53
2018-09-13T15:58:48.235Z,46.93
2018-09-13T16:01:17.101Z,61.53
2018-09-13T16:03:46.300Z,46.87
2018-09-13T16:06:16.238Z,45.80
2018-09-13T16:08:45.603Z,37.80
2018-09-13T16:11:15.030Z,37.17
2018-09-13T16:13:44.316Z,38.37
2018-09-13T16:16:13.155Z,33.00
2018-09-13T16:18:42.013Z,27.33
2018-09-13T16:21:11.252Z,26.87
2018-09-13T16:23:40.040Z,24.07
2018-09-13T16:26:08.987Z,21.50
2018-09-13T16:28:37.823Z,23.70
2018-09-13T16:31:06.749Z,13.73
2018-09-13T16:33:35.677Z,20.67
2018-09-13T16:36:04.632Z,17.83
2018-09-13T16:38:39.304Z,16.90
2018-09-13T16:41:13.620Z,18.87
2018-09-13T16:43:47.884Z,15.47
2018-09-13T16:46:22.202Z,11.90
2018-09-13T16:48:51.181Z,13.67
2018-09-13T16:51:20.323Z,14.80
2018-09-13T16:53:49.236Z,13.63
2018-09-13T16:56:18.155Z,14.17
2018-09-13T16:58:47.068Z,11.77
2018-09-13T17:01:16.480Z,10.93
2018-09-13T17:03:45.788Z,12.00
2018-09-13T17:06:14.801Z,11.70
2018-09-13T17:08:43.667Z,9.93
2018-09-13T17:11:13.134Z,7.87
2018-09-13T17:13:42.237Z,8.43
2018-09-13T17:16:11.253Z,10.63
2018-09-13T17:18:40.219Z,8.63
2018-09-13T17:21:09.096Z,8.10
2018-09-13T17:23:38.532Z,6.43
2018-09-13T17:26:07.370Z,5.83
2018-09-13T17:28:36.596Z,5.87
2018-09-13T17:31:05.573Z,4.77
2018-09-13T17:33:34.526Z,5.80
2018-09-13T17:36:04.274Z,6.00
2018-09-13T17:38:33.092Z,4.73
2018-09-13T17:41:02.215Z,8.30
2018-09-13T17:43:31.168Z,7.10
2018-09-13T17:46:00.047Z,7.17
2018-09-13T17:48:28.957Z,8.80
2018-09-13T17:50:58.405Z,6.77
2018-09-13T17:53:27.309Z,7.77
2018-09-13T17:55:56.339Z,6.00
2018-09-13T17:58:25.276Z,7.10
2018-09-13T18:00:55.449Z,6.10
2018-09-13T18:03:24.669Z,5.90
2018-09-13T18:05:53.226Z,5.60
2018-09-13T18:08:22.852Z,4.50
2018-09-13T18:10:51.506Z,4.20
2018-09-13T18:13:20.595Z,4.27
2018-09-13T18:15:49.802Z,4.57
2018-09-13T18:18:18.500Z,4.87
2018-09-13T18:20:47.491Z,5.53
2018-09-13T18:23:16.353Z,2.77
2018-09-13T18:25:44.914Z,4.00
2018-09-13T18:28:13.498Z,5.37
2018-09-13T18:30:42.364Z,3.37
2018-09-13T18:33:10.940Z,6.33
2018-09-13T18:35:39.451Z,4.10
2018-09-13T18:38:07.980Z,3.77
2018-09-13T18:40:36.616Z,2.97
2018-09-13T18:43:05.300Z,3.23
2018-09-13T18:45:33.833Z,4.37
2018-09-13T18:48:02.398Z,4.27
2018-09-13T18:50:31.802Z,3.70
2018-09-13T18:53:00.375Z,2.80
2018-09-13T18:55:28.938Z,3.23
2018-09-13T18:57:58.675Z,4.63
2018-09-13T19:00:27.622Z,3.70
2018-09-13T19:02:57.370Z,3.17
2018-09-13T19:05:27.325Z,2.30
2018-09-13T19:07:56.695Z,3.27
2018-09-13T19:10:25.616Z,4.30
2018-09-13T19:12:54.524Z,3.77
2018-09-13T19:15:23.740Z,2.90
2018-09-13T19:17:52.724Z,4.93
2018-09-13T19:20:21.867Z,3.65
2018-09-13T19:22:50.793Z,3.53
2018-09-13T19:25:20.244Z,5.43
2018-09-13T19:27:49.523Z,4.10
2018-09-13T19:30:18.496Z,3.35
2018-09-13T19:32:47.600Z,2.83
2018-09-13T19:35:16.634Z,3.87
2018-09-13T19:37:47.581Z,4.10
2018-09-13T19:40:16.757Z,2.40
2018-09-13T19:42:46.561Z,4.15
2018-09-13T19:45:15.729Z,3.07
2018-09-13T19:47:44.863Z,3.63
2018-09-13T19:50:13.783Z,5.13
2018-09-13T19:52:43.099Z,4.53
2018-09-13T19:55:11.914Z,1.63
2018-09-13T19:57:40.750Z,3.03
2018-09-13T20:00:09.747Z,3.30
2018-09-13T20:02:38.683Z,3.20
2018-09-13T20:05:07.633Z,3.33
2018-09-13T20:07:38.058Z,3.03
2018-09-13T20:10:07.226Z,1.97
2018-09-13T20:12:36.073Z,4.47
2018-09-13T20:15:05.497Z,5.33
2018-09-13T20:17:34.408Z,4.63
2018-09-13T20:20:04.159Z,3.03
2018-09-13T20:22:32.992Z,1.97
2018-09-13T20:25:01.845Z,3.73
2018-09-13T20:27:30.717Z,2.43
2018-09-13T20:29:59.669Z,4.47
2018-09-13T20:32:28.850Z,3.27
2018-09-13T20:34:57.745Z,3.67
2018-09-13T20:37:26.604Z,4.70
2018-09-13T20:39:55.454Z,4.50
2018-09-13T20:42:24.501Z,2.60
2018-09-13T20:44:53.500Z,1.90
2018-09-13T20:47:22.778Z,3.03
2018-09-13T20:49:51.682Z,2.87
2018-09-13T20:52:20.532Z,2.53
2018-09-13T20:54:49.411Z,2.13
2018-09-13T20:57:18.295Z,1.63
2018-09-13T20:59:47.098Z,1.70
2018-09-13T21:02:15.935Z,3.07
2018-09-13T21:04:44.907Z,3.23
2018-09-13T21:07:13.837Z,3.37
2018-09-13T21:09:43.527Z,3.10
2018-09-13T21:12:12.741Z,2.43
2018-09-13T21:14:41.608Z,2.77
2018-09-13T21:17:10.510Z,3.93
2018-09-13T21:19:39.408Z,5.03
2018-09-13T21:22:09.164Z,2.10
2018-09-13T21:24:38.394Z,4.50
2018-09-13T21:27:07.879Z,2.90
2018-09-13T21:29:36.944Z,3.30
2018-09-13T21:32:06.303Z,6.27
2018-09-13T21:34:35.417Z,4.30
2018-09-13T21:37:05.049Z,4.80
2018-09-13T21:39:33.910Z,3.10
2018-09-13T21:42:02.813Z,2.50
2018-09-13T21:44:31.713Z,2.63
2018-09-13T21:47:00.477Z,4.37
2018-09-13T21:49:29.357Z,2.87
2018-09-13T21:51:58.240Z,3.50
2018-09-13T21:54:27.057Z,2.10
2018-09-13T21:56:55.957Z,4.28
2018-09-13T21:59:24.823Z,5.13
2018-09-13T22:01:53.697Z,3.20
2018-09-13T22:04:22.569Z,2.53
2018-09-13T22:06:51.425Z,5.17
2018-09-13T22:09:20.248Z,2.87
2018-09-13T22:11:49.087Z,4.40
2018-09-13T22:14:18.017Z,2.70
2018-09-13T22:16:46.916Z,3.47
2018-09-13T22:19:15.721Z,4.83
2018-09-13T22:21:44.552Z,2.70
2018-09-13T22:24:13.380Z,2.40
2018-09-13T22:26:42.212Z,2.20
2018-09-13T22:29:11.111Z,4.23
2018-09-13T22:31:39.876Z,2.50
2018-09-13T22:34:08.694Z,2.50
2018-09-13T22:36:37.516Z,3.37
2018-09-13T22:39:08.043Z,2.53
2018-09-13T22:41:37.599Z,2.73
2018-09-13T22:44:06.751Z,3.10
2018-09-13T22:46:35.802Z,2.07
2018-09-13T22:49:05.187Z,2.22
2018-09-13T22:51:34.414Z,3.30
2018-09-13T22:54:03.541Z,3.30
2018-09-13T22:56:32.355Z,2.60
2018-09-13T22:59:01.204Z,2.10
2018-09-13T23:01:30.053Z,1.67
2018-09-13T23:03:58.894Z,1.40
2018-09-13T23:06:27.756Z,6.73
2018-09-13T23:08:56.607Z,3.10
2018-09-13T23:11:26.059Z,1.73
2018-09-13T23:13:54.891Z,4.33
2018-09-13T23:16:23.800Z,4.30
2018-09-13T23:18:53.120Z,3.77
2018-09-13T23:21:21.987Z,2.00
2018-09-13T23:23:50.854Z,2.47
2018-09-13T23:26:19.745Z,2.67
2018-09-13T23:28:48.563Z,1.50
2018-09-13T23:31:17.420Z,2.93
2018-09-13T23:33:46.253Z,2.73
2018-09-13T23:36:15.387Z,1.73
2018-09-13T23:38:44.215Z,1.70
2018-09-13T23:41:13.206Z,2.55
2018-09-13T23:43:42.057Z,2.27
2018-09-13T23:46:10.950Z,4.60
2018-09-13T23:48:39.715Z,3.07
2018-09-13T23:51:08.655Z,2.47
2018-09-13T23:53:37.515Z,2.73
2018-09-13T23:56:06.432Z,2.83
2018-09-13T23:58:35.624Z,3.13
